Time;durP1;ratioP1;P1;durP2;ratioP2;P2;SDS_P1;SDS_P2;PMS_P1;PMS_P2;Temp;Humidity;BMP_temperature;BMP_pressure;BME280_temperature;BME280_humidity;BME280_pressure;Samples;Min_cycle;Max_cycle;Signal;HPM_P1;HPM_P2
2022/10/24 00:02:23;;;;;;;;;;;14.60;99.90;;;;;;5026314;28;19925;-74
2022/10/24 00:04:55;;;;;;;;;;;14.60;99.90;;;;;;4987758;28;19926;-75
2022/10/24 00:07:26;;;;;;;;;;;14.50;99.90;;;;;;5011343;28;19984;-74
2022/10/24 00:09:58;;;;;;;;;;;14.50;99.90;;;;;;4993512;28;19929;-75
2022/10/24 00:12:30;;;;;;;;;;;14.40;99.90;;;;;;5008170;28;19929;-74
2022/10/24 00:15:02;;;;;;;;;;;14.40;99.90;;;;;;4994504;28;19932;-74
2022/10/24 00:17:33;;;;;;;;;;;14.40;99.90;;;;;;4990839;28;19929;-74
2022/10/24 00:20:05;;;;;;;;;;;14.30;99.90;;;;;;5005556;28;20454;-74
2022/10/24 00:22:37;;;;;;;;;;;14.30;99.90;;;;;;4978996;28;19930;-74
2022/10/24 00:25:08;;;;;;;;;;;14.20;99.90;;;;;;5011953;28;19980;-75
2022/10/24 00:27:40;;;;;;;;;;;14.20;99.90;;;;;;5011148;28;20462;-75
2022/10/24 00:30:12;;;;;;;;;;;14.20;99.90;;;;;;4992536;28;19980;-75
2022/10/24 00:32:43;;;;;;;;;;;14.20;99.90;;;;;;4991759;28;19929;-76
2022/10/24 00:35:15;;;;;;;;;;;14.20;99.90;;;;;;5011710;28;20420;-74
2022/10/24 00:37:46;;;;;;;;;;;14.20;99.90;;;;;;4994285;28;20339;-75
2022/10/24 00:40:19;;;;;;;;;;;14.20;99.90;;;;;;4992151;28;19930;-75
2022/10/24 00:42:50;;;;;;;;;;;14.20;99.90;;;;;;4981422;28;19932;-76
2022/10/24 00:45:41;;;;;;;;;;;14.20;99.90;;;;;;5007453;28;19925;-74
2022/10/24 00:48:15;;;;;;;;;;;14.30;99.90;;;;;;5024993;28;19996;-74
2022/10/24 00:50:48;;;;;;;;;;;14.30;99.90;;;;;;5009446;28;20418;-76
2022/10/24 00:53:20;;;;;;;;;;;14.30;99.90;;;;;;5011427;28;19929;-76
2022/10/24 00:55:54;;;;;;;;;;;14.20;99.90;;;;;;5010888;28;19929;-75
2022/10/24 00:58:28;;;;;;;;;;;14.20;99.90;;;;;;5025596;28;19929;-75
2022/10/24 01:01:00;;;;;;;;;;;14.20;99.90;;;;;;5008724;28;19988;-74
2022/10/24 01:03:32;;;;;;;;;;;14.20;99.90;;;;;;4993670;28;19929;-74
2022/10/24 01:06:06;;;;;;;;;;;14.20;99.90;;;;;;4990758;28;19933;-75
2022/10/24 01:08:44;;;;;;;;;;;14.20;99.90;;;;;;5009216;28;19929;-75
2022/10/24 01:11:39;;;;;;;;;;;14.10;99.90;;;;;;5008953;28;20004;-76
2022/10/24 01:14:13;;;;;;;;;;;14.10;99.90;;;;;;5008638;28;19929;-76
2022/10/24 01:17:04;;;;;;;;;;;14.10;99.90;;;;;;5009022;28;19925;-75
2022/10/24 01:19:47;;;;;;;;;;;14.10;99.90;;;;;;4995749;28;19925;-76
2022/10/24 01:22:24;;;;;;;;;;;14.10;99.90;;;;;;4993239;28;19925;-75
2022/10/24 01:24:59;;;;;;;;;;;14.10;99.90;;;;;;5022217;28;19926;-74
2022/10/24 01:27:36;;;;;;;;;;;14.10;99.90;;;;;;5009198;28;19983;-75
2022/10/24 01:30:12;;;;;;;;;;;14.10;99.90;;;;;;4990029;28;19973;-74
2022/10/24 01:32:51;;;;;;;;;;;14.10;99.90;;;;;;5025185;28;19925;-74
2022/10/24 01:35:26;;;;;;;;;;;14.10;99.90;;;;;;4993083;28;19926;-74
2022/10/24 01:37:58;;;;;;;;;;;14.10;99.90;;;;;;5009586;28;19945;-74
2022/10/24 01:40:44;;;;;;;;;;;14.10;99.90;;;;;;5005339;28;19929;-73
2022/10/24 01:43:18;;;;;;;;;;;14.10;99.90;;;;;;5008391;28;19925;-75
2022/10/24 01:45:52;;;;;;;;;;;14.00;99.90;;;;;;4990273;28;19976;-75
2022/10/24 01:48:24;;;;;;;;;;;14.00;99.90;;;;;;5008984;28;20396;-75
2022/10/24 01:50:57;;;;;;;;;;;14.00;99.90;;;;;;5024101;28;20516;-76
2022/10/24 01:53:29;;;;;;;;;;;14.00;99.90;;;;;;5025065;28;19933;-76
2022/10/24 01:56:01;;;;;;;;;;;14.00;99.90;;;;;;5008296;28;20488;-76
2022/10/24 01:58:32;;;;;;;;;;;14.00;99.90;;;;;;5005116;28;19929;-76
2022/10/24 02:01:08;;;;;;;;;;;14.00;99.90;;;;;;5007733;28;19930;-75
2022/10/24 02:03:46;;;;;;;;;;;14.10;99.90;;;;;;5009333;28;19980;-75
2022/10/24 02:06:22;;;;;;;;;;;14.10;99.90;;;;;;5023371;28;19973;-75
2022/10/24 02:09:00;;;;;;;;;;;14.10;99.90;;;;;;5005645;28;20384;-74
2022/10/24 02:11:33;;;;;;;;;;;14.10;99.90;;;;;;5008193;28;19934;-75
2022/10/24 02:14:09;;;;;;;;;;;14.10;99.90;;;;;;4976675;28;19973;-76
2022/10/24 02:16:41;;;;;;;;;;;14.00;99.90;;;;;;4989176;28;19926;-74
2022/10/24 02:19:13;;;;;;;;;;;14.00;99.90;;;;;;4990898;28;19929;-74
2022/10/24 02:22:03;;;;;;;;;;;14.00;99.90;;;;;;4992131;28;20380;-75
2022/10/24 02:24:41;;;;;;;;;;;14.00;99.90;;;;;;4983341;28;19930;-74
2022/10/24 02:27:16;;;;;;;;;;;14.10;99.90;;;;;;4993121;28;19980;-75
2022/10/24 02:30:08;;;;;;;;;;;14.20;99.90;;;;;;4991969;28;20392;-74
2022/10/24 02:32:41;;;;;;;;;;;14.30;99.90;;;;;;4995748;28;19980;-74
2022/10/24 02:35:15;;;;;;;;;;;14.50;99.90;;;;;;4992491;28;20386;-74
2022/10/24 02:37:50;;;;;;;;;;;14.50;99.90;;;;;;5012282;28;19929;-74
2022/10/24 02:40:21;;;;;;;;;;;14.60;99.90;;;;;;5026776;28;19929;-76
2022/10/24 02:42:50;;;;;;;;;;;14.60;99.90;;;;;;5012436;28;19960;-75
2022/10/24 02:45:22;;;;;;;;;;;14.70;99.90;;;;;;5027569;28;19995;-77
2022/10/24 02:47:55;;;;;;;;;;;14.80;99.90;;;;;;5008737;28;19980;-73
2022/10/24 02:50:27;;;;;;;;;;;14.90;99.90;;;;;;5011134;28;19926;-74
2022/10/24 02:52:59;;;;;;;;;;;15.00;99.90;;;;;;4995545;28;20261;-74
2022/10/24 02:55:30;;;;;;;;;;;15.00;99.90;;;;;;5027211;28;19980;-76
2022/10/24 02:58:02;;;;;;;;;;;15.10;99.90;;;;;;5027074;28;19984;-75
2022/10/24 03:00:34;;;;;;;;;;;15.10;99.90;;;;;;5024293;28;19930;-76
2022/10/24 03:03:06;;;;;;;;;;;15.10;99.90;;;;;;4988769;28;19981;-75
2022/10/24 03:05:37;;;;;;;;;;;15.10;99.90;;;;;;5010657;28;19929;-75
2022/10/24 03:08:09;;;;;;;;;;;15.20;99.90;;;;;;5025495;28;19980;-75
2022/10/24 03:10:40;;;;;;;;;;;15.20;99.90;;;;;;5011161;28;19976;-75
2022/10/24 03:13:12;;;;;;;;;;;15.20;99.90;;;;;;5022495;28;19930;-76
2022/10/24 03:15:43;;;;;;;;;;;15.20;99.90;;;;;;5010262;28;19925;-76
2022/10/24 03:18:15;;;;;;;;;;;15.20;99.90;;;;;;5011881;28;19929;-75
2022/10/24 03:20:47;;;;;;;;;;;15.10;99.90;;;;;;5011781;28;19960;-76
2022/10/24 03:23:20;;;;;;;;;;;15.10;99.90;;;;;;5027092;28;19930;-77
2022/10/24 03:25:52;;;;;;;;;;;15.10;99.90;;;;;;5012297;28;20269;-73
2022/10/24 03:28:23;;;;;;;;;;;15.00;99.90;;;;;;5009949;28;19929;-75
2022/10/24 03:30:55;;;;;;;;;;;14.90;99.90;;;;;;4993723;28;19925;-75
2022/10/24 03:33:26;;;;;;;;;;;14.90;99.90;;;;;;5006397;28;19984;-74
2022/10/24 03:35:53;;;;;;;;;;;14.80;99.90;;;;;;5027287;28;19929;-76
2022/10/24 03:38:25;;;;;;;;;;;14.80;99.90;;;;;;5011301;28;20432;-73
2022/10/24 03:40:57;;;;;;;;;;;14.80;99.90;;;;;;5027309;28;19977;-77
2022/10/24 03:43:28;;;;;;;;;;;14.80;99.90;;;;;;5021760;28;19926;-75
2022/10/24 03:46:00;;;;;;;;;;;14.70;99.90;;;;;;5026013;28;19980;-76
2022/10/24 03:48:31;;;;;;;;;;;14.60;99.90;;;;;;5011521;28;19980;-73
2022/10/24 03:51:03;;;;;;;;;;;14.60;99.90;;;;;;5011761;28;20332;-76
2022/10/24 03:53:35;;;;;;;;;;;14.40;99.90;;;;;;5011326;28;20336;-75
2022/10/24 03:56:07;;;;;;;;;;;14.40;99.90;;;;;;5011508;28;19996;-76
2022/10/24 03:58:38;;;;;;;;;;;14.30;99.90;;;;;;5008150;28;20294;-74
2022/10/24 04:01:16;;;;;;;;;;;14.20;99.90;;;;;;5005753;28;19930;-77
2022/10/24 04:03:47;;;;;;;;;;;14.20;99.90;;;;;;5010220;28;19976;-75
2022/10/24 04:06:19;;;;;;;;;;;14.20;99.90;;;;;;4998317;28;19926;-72
2022/10/24 04:08:50;;;;;;;;;;;14.20;99.90;;;;;;5022388;28;20420;-80
2022/10/24 04:11:22;;;;;;;;;;;14.20;99.90;;;;;;4994322;28;19933;-75
2022/10/24 04:13:54;;;;;;;;;;;14.20;99.90;;;;;;5009336;28;20311;-73
2022/10/24 04:16:26;;;;;;;;;;;14.30;99.90;;;;;;5000805;28;20411;-75
2022/10/24 04:18:57;;;;;;;;;;;14.30;99.90;;;;;;5023328;28;19937;-75
2022/10/24 04:21:29;;;;;;;;;;;14.30;99.90;;;;;;5012600;28;19925;-74
2022/10/24 04:24:01;;;;;;;;;;;14.50;99.90;;;;;;4993803;28;19972;-75
2022/10/24 04:26:32;;;;;;;;;;;14.50;99.90;;;;;;4993575;28;19926;-74
2022/10/24 04:29:04;;;;;;;;;;;14.50;99.90;;;;;;4993807;28;20440;-73
2022/10/24 04:31:36;;;;;;;;;;;14.40;99.90;;;;;;4993773;28;20592;-77
2022/10/24 04:34:07;;;;;;;;;;;14.40;99.90;;;;;;5021452;28;19957;-76
2022/10/24 04:36:34;;;;;;;;;;;14.40;99.90;;;;;;5009833;28;19936;-76
2022/10/24 04:39:05;;;;;;;;;;;14.40;99.90;;;;;;5008045;28;20016;-73
2022/10/24 04:41:37;;;;;;;;;;;14.30;99.90;;;;;;4987919;28;19929;-76
2022/10/24 04:44:09;;;;;;;;;;;14.30;99.90;;;;;;5024004;28;19972;-76
2022/10/24 04:46:35;;;;;;;;;;;14.30;99.90;;;;;;5010603;28;20381;-77
2022/10/24 04:49:08;;;;;;;;;;;14.20;99.90;;;;;;5023478;28;19926;-77
2022/10/24 04:51:40;;;;;;;;;;;14.20;99.90;;;;;;5010382;28;19997;-75
2022/10/24 04:54:12;;;;;;;;;;;14.10;99.90;;;;;;4993061;28;19929;-77
2022/10/24 04:56:43;;;;;;;;;;;14.10;99.90;;;;;;5023035;28;19929;-76
2022/10/24 04:59:15;;;;;;;;;;;14.10;99.90;;;;;;5006148;28;20469;-76
2022/10/24 05:01:46;;;;;;;;;;;14.10;99.90;;;;;;4974943;28;20019;-76
2022/10/24 05:04:18;;;;;;;;;;;14.10;99.90;;;;;;4991064;28;19985;-74
2022/10/24 05:06:49;;;;;;;;;;;14.10;99.90;;;;;;5006141;28;20385;-75
2022/10/24 05:09:21;;;;;;;;;;;14.10;99.90;;;;;;5008495;28;20430;-72
2022/10/24 05:11:54;;;;;;;;;;;14.10;99.90;;;;;;5019616;28;19933;-76
2022/10/24 05:14:25;;;;;;;;;;;14.10;99.90;;;;;;5020594;28;19929;-75
2022/10/24 05:16:57;;;;;;;;;;;14.10;99.90;;;;;;4989780;28;19929;-75
2022/10/24 05:19:28;;;;;;;;;;;14.10;99.90;;;;;;5013429;28;19929;-76
2022/10/24 05:22:00;;;;;;;;;;;14.10;99.90;;;;;;4988471;28;19926;-75
2022/10/24 05:24:32;;;;;;;;;;;14.20;99.90;;;;;;5005582;28;19925;-75
2022/10/24 05:27:03;;;;;;;;;;;14.30;99.90;;;;;;4989647;28;20463;-73
2022/10/24 05:29:35;;;;;;;;;;;14.50;99.90;;;;;;4986643;28;19933;-75
2022/10/24 05:32:06;;;;;;;;;;;14.60;99.90;;;;;;4990610;28;19937;-77
2022/10/24 05:34:38;;;;;;;;;;;14.70;99.90;;;;;;5006510;28;19940;-76
2022/10/24 05:37:10;;;;;;;;;;;14.70;99.90;;;;;;5005134;28;19926;-74
2022/10/24 05:39:41;;;;;;;;;;;14.80;99.90;;;;;;5006796;28;19925;-77
2022/10/24 05:42:13;;;;;;;;;;;14.90;99.90;;;;;;4991011;28;19925;-76
2022/10/24 05:44:44;;;;;;;;;;;14.90;99.90;;;;;;4990826;28;20435;-73
2022/10/24 05:47:16;;;;;;;;;;;14.90;99.90;;;;;;5014135;28;19930;-72
2022/10/24 05:49:48;;;;;;;;;;;14.90;99.90;;;;;;5003197;28;20475;-76
2022/10/24 05:52:19;;;;;;;;;;;14.80;99.90;;;;;;5015889;28;19926;-75
2022/10/24 05:54:51;;;;;;;;;;;14.80;99.90;;;;;;5008332;28;19933;-76
2022/10/24 05:57:22;;;;;;;;;;;14.70;99.90;;;;;;4991091;28;19929;-77
2022/10/24 05:59:54;;;;;;;;;;;14.70;99.90;;;;;;4987255;28;20316;-75
2022/10/24 06:02:25;;;;;;;;;;;14.60;99.90;;;;;;5013312;28;19936;-74
2022/10/24 06:04:57;;;;;;;;;;;14.50;99.90;;;;;;5025236;28;20007;-77
2022/10/24 06:07:30;;;;;;;;;;;14.50;99.90;;;;;;5012545;28;19991;-74
2022/10/24 06:10:02;;;;;;;;;;;14.50;99.90;;;;;;5006849;28;19983;-74
2022/10/24 06:12:37;;;;;;;;;;;14.50;99.90;;;;;;4982938;28;19941;-75
2022/10/24 06:15:05;;;;;;;;;;;14.60;99.90;;;;;;5016261;28;19925;-77
2022/10/24 06:17:36;;;;;;;;;;;14.60;99.90;;;;;;4994631;28;19929;-75
2022/10/24 06:20:08;;;;;;;;;;;14.70;99.90;;;;;;4994630;28;19930;-75
2022/10/24 06:22:40;;;;;;;;;;;14.70;99.90;;;;;;5014349;28;20312;-75
2022/10/24 06:25:12;;;;;;;;;;;14.70;99.90;;;;;;4998103;28;19941;-75
2022/10/24 06:27:39;;;;;;;;;;;14.70;99.90;;;;;;4997378;28;20123;-75
2022/10/24 06:30:10;;;;;;;;;;;14.70;99.90;;;;;;4997965;28;19929;-75
2022/10/24 06:32:42;;;;;;;;;;;14.70;99.90;;;;;;5030993;28;19929;-77
2022/10/24 06:35:14;;;;;;;;;;;14.60;99.90;;;;;;4992497;28;19956;-75
2022/10/24 06:37:46;;;;;;;;;;;14.60;99.90;;;;;;5001170;28;19926;-75
2022/10/24 06:40:12;;;;;;;;;;;14.60;99.90;;;;;;5030652;28;19925;-77
2022/10/24 06:42:44;;;;;;;;;;;14.50;99.90;;;;;;5002701;28;19981;-75
2022/10/24 06:45:11;;;;;;;;;;;14.50;99.90;;;;;;5014352;28;19933;-77
2022/10/24 06:47:43;;;;;;;;;;;14.50;99.90;;;;;;5013068;28;20058;-75
2022/10/24 06:50:15;;;;;;;;;;;14.50;99.90;;;;;;5030007;28;19925;-74
2022/10/24 06:52:46;;;;;;;;;;;14.50;99.90;;;;;;4982678;28;19980;-76
2022/10/24 06:55:13;;;;;;;;;;;14.50;99.90;;;;;;5013010;28;20388;-76
2022/10/24 06:57:45;;;;;;;;;;;14.50;99.90;;;;;;5028356;28;19932;-75
2022/10/24 07:00:16;;;;;;;;;;;14.40;99.90;;;;;;4998476;28;19977;-76
2022/10/24 07:02:48;;;;;;;;;;;14.30;99.90;;;;;;5017156;28;19980;-75
2022/10/24 07:05:19;;;;;;;;;;;14.30;99.90;;;;;;5016324;28;19984;-75
2022/10/24 07:07:51;;;;;;;;;;;14.20;99.90;;;;;;4994719;28;19934;-76
2022/10/24 07:10:23;;;;;;;;;;;14.20;99.90;;;;;;4991011;28;19926;-75
2022/10/24 07:12:54;;;;;;;;;;;14.20;99.90;;;;;;4995668;28;19925;-75
2022/10/24 07:15:26;;;;;;;;;;;14.20;99.90;;;;;;5017535;28;19940;-74
2022/10/24 07:17:57;;;;;;;;;;;14.20;99.90;;;;;;5010947;28;20336;-76
2022/10/24 07:20:29;;;;;;;;;;;14.30;99.90;;;;;;5009745;28;19973;-74
2022/10/24 07:23:00;;;;;;;;;;;14.30;99.90;;;;;;5011808;28;20610;-73
2022/10/24 07:25:32;;;;;;;;;;;14.30;99.90;;;;;;5004005;28;19933;-72
2022/10/24 07:28:04;;;;;;;;;;;14.30;99.90;;;;;;5012719;28;19980;-76
2022/10/24 07:30:31;;;;;;;;;;;14.30;99.90;;;;;;4994401;28;19933;-75
2022/10/24 07:33:03;;;;;;;;;;;14.20;99.90;;;;;;5012435;28;19933;-75
2022/10/24 07:35:39;;;;;;;;;;;14.20;99.90;;;;;;4993213;28;19945;-75
2022/10/24 07:38:11;;;;;;;;;;;14.10;99.90;;;;;;5009213;28;19925;-76
2022/10/24 07:40:42;;;;;;;;;;;14.10;99.90;;;;;;4988048;28;20376;-75
2022/10/24 07:43:15;;;;;;;;;;;14.00;99.90;;;;;;4994529;28;19926;-75
2022/10/24 07:45:47;;;;;;;;;;;14.00;99.90;;;;;;5012675;28;19925;-73
2022/10/24 07:48:14;;;;;;;;;;;14.00;99.90;;;;;;4978788;28;19930;-76
2022/10/24 07:50:46;;;;;;;;;;;14.00;99.90;;;;;;5011693;28;19984;-74
2022/10/24 07:53:17;;;;;;;;;;;14.00;99.90;;;;;;5017446;28;19988;-75
2022/10/24 07:55:49;;;;;;;;;;;13.90;99.90;;;;;;4992820;28;19961;-74
2022/10/24 07:58:21;;;;;;;;;;;13.90;99.90;;;;;;4995818;28;19929;-77
2022/10/24 08:00:52;;;;;;;;;;;13.90;99.90;;;;;;5010752;28;19926;-75
2022/10/24 08:03:24;;;;;;;;;;;13.90;99.90;;;;;;5010581;28;19933;-74
2022/10/24 08:05:55;;;;;;;;;;;13.80;99.90;;;;;;5011504;28;19962;-75
2022/10/24 08:08:22;;;;;;;;;;;13.90;99.90;;;;;;5011614;28;21372;-74
2022/10/24 08:10:53;;;;;;;;;;;14.00;99.90;;;;;;5024689;28;19926;-76
2022/10/24 08:13:25;;;;;;;;;;;14.00;99.90;;;;;;4995064;28;19933;-74
2022/10/24 08:15:56;;;;;;;;;;;14.00;99.90;;;;;;5008891;28;19933;-75
2022/10/24 08:18:23;;;;;;;;;;;14.00;99.90;;;;;;5011525;28;20026;-75
2022/10/24 08:20:55;;;;;;;;;;;14.10;99.90;;;;;;5010985;28;19972;-75
2022/10/24 08:23:27;;;;;;;;;;;14.00;99.90;;;;;;4976441;28;19932;-77
2022/10/24 08:25:59;;;;;;;;;;;14.00;99.90;;;;;;4991058;28;19979;-75
2022/10/24 08:28:30;;;;;;;;;;;14.00;99.90;;;;;;5027262;28;19932;-75
2022/10/24 08:31:14;;;;;;;;;;;14.00;99.90;;;;;;5009585;28;19995;-75
2022/10/24 08:33:46;;;;;;;;;;;14.00;99.90;;;;;;5004858;28;20205;-76
2022/10/24 08:36:22;;;;;;;;;;;14.00;99.90;;;;;;4990085;28;20388;-74
2022/10/24 08:38:49;;;;;;;;;;;14.00;99.90;;;;;;4974515;28;20297;-75
2022/10/24 08:41:27;;;;;;;;;;;14.00;99.90;;;;;;5008240;28;19978;-74
2022/10/24 08:44:01;;;;;;;;;;;14.00;99.90;;;;;;5004327;28;19930;-74
2022/10/24 08:46:47;;;;;;;;;;;14.00;99.90;;;;;;5003568;28;19926;-72
2022/10/24 08:49:32;;;;;;;;;;;14.00;99.90;;;;;;5010632;28;19925;-73
2022/10/24 08:52:23;;;;;;;;;;;14.00;99.90;;;;;;4987157;28;19936;-74
2022/10/24 08:54:57;;;;;;;;;;;13.90;99.90;;;;;;5011025;28;19929;-73
2022/10/24 08:57:30;;;;;;;;;;;13.90;99.90;;;;;;5022756;28;19925;-72
2022/10/24 09:00:06;;;;;;;;;;;13.90;99.90;;;;;;4993951;28;19980;-76
2022/10/24 09:02:42;;;;;;;;;;;13.90;99.90;;;;;;4999557;28;19926;-73
2022/10/24 09:05:19;;;;;;;;;;;14.00;99.90;;;;;;5011495;28;19948;-76
2022/10/24 09:07:47;;;;;;;;;;;14.00;99.90;;;;;;4997468;28;19926;-77
2022/10/24 09:10:27;;;;;;;;;;;14.00;99.90;;;;;;4998864;28;19926;-73
2022/10/24 09:12:59;;;;;;;;;;;14.10;99.90;;;;;;5011801;28;19929;-74
2022/10/24 09:15:31;;;;;;;;;;;14.20;99.90;;;;;;5011629;28;20308;-74
2022/10/24 09:18:02;;;;;;;;;;;14.20;99.90;;;;;;4993367;28;20351;-75
2022/10/24 09:20:34;;;;;;;;;;;14.20;99.90;;;;;;5023612;28;20193;-76
2022/10/24 09:23:05;;;;;;;;;;;14.10;99.90;;;;;;5003228;28;19926;-75
2022/10/24 09:25:34;;;;;;;;;;;14.20;99.90;;;;;;5007491;28;19926;-75
2022/10/24 09:28:05;;;;;;;;;;;14.10;99.90;;;;;;5008505;28;20384;-75
2022/10/24 09:30:37;;;;;;;;;;;14.10;99.90;;;;;;5007792;28;19980;-75
2022/10/24 09:33:21;;;;;;;;;;;14.10;99.90;;;;;;5011681;28;19926;-74
2022/10/24 09:35:54;;;;;;;;;;;14.10;99.90;;;;;;4984057;28;20298;-76
2022/10/24 09:38:26;;;;;;;;;;;14.00;99.90;;;;;;5010938;28;20020;-74
2022/10/24 09:41:14;;;;;;;;;;;14.00;99.90;;;;;;5010986;28;19930;-75
2022/10/24 09:43:49;;;;;;;;;;;14.00;99.90;;;;;;4986445;28;19925;-76
2022/10/24 09:46:23;;;;;;;;;;;14.00;99.90;;;;;;4992861;28;19930;-76
2022/10/24 09:49:05;;;;;;;;;;;14.00;99.90;;;;;;5011188;28;19991;-75
2022/10/24 09:51:40;;;;;;;;;;;14.00;99.90;;;;;;4986226;28;20330;-72
2022/10/24 09:54:17;;;;;;;;;;;14.00;99.90;;;;;;5009573;28;19932;-73
2022/10/24 09:56:52;;;;;;;;;;;14.00;99.90;;;;;;5007604;28;19933;-74
2022/10/24 09:59:27;;;;;;;;;;;14.00;99.90;;;;;;5010974;28;19925;-74
2022/10/24 10:02:13;;;;;;;;;;;14.10;99.90;;;;;;4993344;28;20377;-76
2022/10/24 10:05:08;;;;;;;;;;;14.20;99.90;;;;;;5003002;28;20412;-73
2022/10/24 10:07:41;;;;;;;;;;;14.20;99.90;;;;;;5011438;28;19929;-75
2022/10/24 10:10:22;;;;;;;;;;;14.30;99.90;;;;;;5025718;28;19933;-77
2022/10/24 10:13:00;;;;;;;;;;;14.30;99.90;;;;;;4994468;28;20427;-74
2022/10/24 10:15:43;;;;;;;;;;;14.30;99.90;;;;;;5011126;28;19933;-75
2022/10/24 10:18:25;;;;;;;;;;;14.30;99.90;;;;;;5007049;28;20340;-75
2022/10/24 10:21:00;;;;;;;;;;;14.30;99.90;;;;;;5010476;28;19933;-74
2022/10/24 10:23:33;;;;;;;;;;;14.30;99.90;;;;;;4992891;28;19925;-73
2022/10/24 10:26:14;;;;;;;;;;;14.30;99.90;;;;;;5010078;28;20442;-74
2022/10/24 10:28:58;;;;;;;;;;;14.40;99.90;;;;;;5004401;28;19926;-75
2022/10/24 10:31:35;;;;;;;;;;;14.30;99.90;;;;;;5007684;28;19940;-75
2022/10/24 10:34:13;;;;;;;;;;;14.40;99.90;;;;;;5008465;28;20332;-73
2022/10/24 10:36:48;;;;;;;;;;;14.30;99.90;;;;;;5005944;28;20448;-74
2022/10/24 10:39:26;;;;;;;;;;;14.30;99.90;;;;;;5009956;28;20038;-74
2022/10/24 10:42:01;;;;;;;;;;;14.30;99.90;;;;;;5010090;28;19925;-72
2022/10/24 10:44:35;;;;;;;;;;;14.30;99.90;;;;;;4992273;28;19933;-75
2022/10/24 10:47:23;;;;;;;;;;;14.20;99.90;;;;;;5009273;28;20439;-74
2022/10/24 10:49:56;;;;;;;;;;;14.20;99.90;;;;;;4994297;28;19984;-73
2022/10/24 10:52:32;;;;;;;;;;;14.20;99.90;;;;;;5011442;28;19930;-75
2022/10/24 10:55:16;;;;;;;;;;;14.20;99.90;;;;;;5011120;28;20335;-74
2022/10/24 10:58:02;;;;;;;;;;;14.20;99.90;;;;;;4991289;28;19925;-74
2022/10/24 11:00:45;;;;;;;;;;;14.20;99.90;;;;;;5010837;28;19925;-74
2022/10/24 11:03:35;;;;;;;;;;;14.10;99.90;;;;;;4994191;28;19932;-74
2022/10/24 11:06:22;;;;;;;;;;;14.10;99.90;;;;;;4990713;28;19936;-74
2022/10/24 11:09:00;;;;;;;;;;;14.10;99.90;;;;;;5011881;28;19926;-73
2022/10/24 11:11:34;;;;;;;;;;;14.10;99.90;;;;;;5013672;28;19925;-76
2022/10/24 11:14:20;;;;;;;;;;;14.10;99.90;;;;;;4996365;28;19925;-74
2022/10/24 11:16:55;;;;;;;;;;;14.10;99.90;;;;;;4994810;28;20408;-74
2022/10/24 11:19:31;;;;;;;;;;;14.00;99.90;;;;;;5012514;28;19973;-74
2022/10/24 11:22:03;;;;;;;;;;;14.00;99.90;;;;;;5013564;28;19988;-74
2022/10/24 11:24:43;;;;;;;;;;;14.00;99.90;;;;;;5018053;28;19925;-76
2022/10/24 11:27:20;;;;;;;;;;;14.00;99.90;;;;;;5010649;28;19925;-74
2022/10/24 11:30:02;;;;;;;;;;;14.00;99.90;;;;;;4992099;28;19976;-74
2022/10/24 11:32:52;;;;;;;;;;;14.10;99.90;;;;;;5026835;28;19925;-74
2022/10/24 11:35:23;;;;;;;;;;;14.00;99.90;;;;;;4998728;28;19926;-73
2022/10/24 11:38:01;;;;;;;;;;;14.10;99.90;;;;;;5013001;28;19981;-73
2022/10/24 11:40:33;;;;;;;;;;;14.10;99.90;;;;;;4995948;28;19969;-74
2022/10/24 11:43:23;;;;;;;;;;;14.10;99.90;;;;;;5011285;28;19937;-75
2022/10/24 11:46:04;;;;;;;;;;;14.00;99.90;;;;;;5008004;28;19926;-73
2022/10/24 11:48:54;;;;;;;;;;;14.00;99.90;;;;;;5011664;28;19925;-73
2022/10/24 11:51:29;;;;;;;;;;;14.00;99.90;;;;;;5009681;28;19930;-74
2022/10/24 11:54:06;;;;;;;;;;;14.00;99.90;;;;;;5009030;28;19968;-75
2022/10/24 11:56:48;;;;;;;;;;;13.90;99.90;;;;;;4994771;28;19975;-73
2022/10/24 11:59:23;;;;;;;;;;;13.90;99.90;;;;;;4991161;28;19930;-73
2022/10/24 12:01:54;;;;;;;;;;;13.90;99.90;;;;;;5012890;28;19932;-74
2022/10/24 12:04:30;;;;;;;;;;;13.80;99.90;;;;;;4992179;28;19937;-73
2022/10/24 12:07:21;;;;;;;;;;;13.90;99.90;;;;;;5007827;28;19926;-75
2022/10/24 12:10:12;;;;;;;;;;;13.80;99.90;;;;;;4998016;28;20328;-75
2022/10/24 12:13:02;;;;;;;;;;;13.80;99.90;;;;;;4996207;28;19980;-74
2022/10/24 12:15:55;;;;;;;;;;;13.90;99.90;;;;;;5009330;28;20392;-74
2022/10/24 12:18:32;;;;;;;;;;;13.80;99.90;;;;;;5010041;28;20312;-74
2022/10/24 12:21:01;;;;;;;;;;;13.80;99.90;;;;;;4995351;28;19929;-74
2022/10/24 12:23:33;;;;;;;;;;;13.70;99.90;;;;;;5027653;28;20344;-73
2022/10/24 12:26:04;;;;;;;;;;;13.80;99.90;;;;;;5018219;28;19926;-74
2022/10/24 12:28:37;;;;;;;;;;;13.80;99.90;;;;;;5007924;28;19929;-74
2022/10/24 12:31:08;;;;;;;;;;;13.80;99.90;;;;;;5007859;28;19929;-75
2022/10/24 12:33:42;;;;;;;;;;;13.70;99.90;;;;;;4995752;28;19929;-74
2022/10/24 12:36:13;;;;;;;;;;;13.70;99.90;;;;;;5011821;28;20522;-74
2022/10/24 12:38:57;;;;;;;;;;;13.70;99.90;;;;;;4994751;28;20344;-74
2022/10/24 12:41:28;;;;;;;;;;;13.70;99.90;;;;;;5012302;28;19930;-75
2022/10/24 12:44:19;;;;;;;;;;;13.70;99.90;;;;;;4994496;28;19960;-75
2022/10/24 12:46:52;;;;;;;;;;;13.70;99.90;;;;;;4993815;28;19929;-75
2022/10/24 12:49:32;;;;;;;;;;;13.70;99.90;;;;;;5012290;28;19925;-76
2022/10/24 12:52:23;;;;;;;;;;;13.70;99.90;;;;;;4995049;28;19979;-74
2022/10/24 12:54:55;;;;;;;;;;;13.70;99.90;;;;;;4997090;28;19926;-74
2022/10/24 12:57:30;;;;;;;;;;;13.70;99.90;;;;;;5009708;28;19926;-75
2022/10/24 13:00:03;;;;;;;;;;;13.70;99.90;;;;;;4993900;28;19926;-73
2022/10/24 13:02:41;;;;;;;;;;;13.70;99.90;;;;;;5009191;28;19933;-75
2022/10/24 13:05:13;;;;;;;;;;;13.70;99.90;;;;;;5005527;28;19925;-74
2022/10/24 13:08:03;;;;;;;;;;;13.60;99.90;;;;;;5008475;28;19926;-74
2022/10/24 13:11:13;;;;;;;;;;;13.50;99.90;;;;;;4996289;28;19973;-74
2022/10/24 13:13:49;;;;;;;;;;;13.50;99.90;;;;;;4948384;29;20396;-74
2022/10/24 13:16:21;;;;;;;;;;;13.50;99.90;;;;;;4941178;28;19941;-75
2022/10/24 13:19:16;;;;;;;;;;;13.50;99.90;;;;;;4966973;28;19930;-75
2022/10/24 13:21:53;;;;;;;;;;;13.50;99.90;;;;;;4996372;28;19925;-74
2022/10/24 13:24:32;;;;;;;;;;;13.60;99.90;;;;;;4990358;28;19933;-78
2022/10/24 13:27:02;;;;;;;;;;;13.70;99.90;;;;;;5002462;28;19930;-74
2022/10/24 13:29:28;;;;;;;;;;;13.70;99.90;;;;;;5004407;28;20539;-72
2022/10/24 13:32:03;;;;;;;;;;;13.70;99.90;;;;;;5006674;28;19976;-77
2022/10/24 13:34:51;;;;;;;;;;;13.80;99.90;;;;;;4990170;28;19991;-74
2022/10/24 13:37:24;;;;;;;;;;;13.80;99.90;;;;;;5005558;28;19937;-73
2022/10/24 13:40:01;;;;;;;;;;;13.80;99.90;;;;;;5004483;28;20673;-75
2022/10/24 13:42:35;;;;;;;;;;;13.80;99.90;;;;;;5017782;28;19933;-74
2022/10/24 13:45:26;;;;;;;;;;;13.80;99.90;;;;;;4990806;28;19925;-72
2022/10/24 13:48:00;;;;;;;;;;;13.80;99.90;;;;;;4988491;28;19941;-74
2022/10/24 13:50:35;;;;;;;;;;;13.80;99.90;;;;;;4988285;28;19930;-76
2022/10/24 13:53:18;;;;;;;;;;;13.80;99.90;;;;;;5007063;28;19988;-73
2022/10/24 13:55:46;;;;;;;;;;;13.80;99.90;;;;;;5003529;28;20034;-72
2022/10/24 13:58:19;;;;;;;;;;;13.70;99.90;;;;;;4982142;28;19981;-73
2022/10/24 14:00:56;;;;;;;;;;;13.70;99.90;;;;;;4989870;28;20392;-74
2022/10/24 14:03:24;;;;;;;;;;;13.70;99.90;;;;;;4991202;28;19945;-74
2022/10/24 14:05:52;;;;;;;;;;;13.70;99.90;;;;;;5007406;28;20004;-73
2022/10/24 14:08:35;;;;;;;;;;;13.80;99.90;;;;;;5005216;28;20596;-75
2022/10/24 14:11:07;;;;;;;;;;;13.70;99.90;;;;;;4990719;28;19934;-76
2022/10/24 14:13:47;;;;;;;;;;;13.70;99.90;;;;;;5004344;28;19929;-75
2022/10/24 14:16:25;;;;;;;;;;;13.80;99.90;;;;;;4988234;28;19925;-76
2022/10/24 14:19:08;;;;;;;;;;;13.70;99.90;;;;;;4988395;28;19961;-73
2022/10/24 14:21:41;;;;;;;;;;;13.80;99.90;;;;;;5004945;28;19933;-76
2022/10/24 14:24:14;;;;;;;;;;;13.80;99.90;;;;;;4979512;28;19933;-72
2022/10/24 14:26:46;;;;;;;;;;;13.80;99.90;;;;;;4991804;28;19934;-76
2022/10/24 14:29:24;;;;;;;;;;;13.80;99.90;;;;;;4988910;28;20392;-74
2022/10/24 14:31:58;;;;;;;;;;;13.80;99.90;;;;;;5008299;28;20296;-77
2022/10/24 14:34:30;;;;;;;;;;;13.80;99.90;;;;;;4992403;28;19985;-73
2022/10/24 14:37:13;;;;;;;;;;;13.80;99.90;;;;;;5008707;28;19980;-75
2022/10/24 14:39:45;;;;;;;;;;;13.80;99.90;;;;;;5009022;28;20012;-77
2022/10/24 14:42:13;;;;;;;;;;;13.80;99.90;;;;;;5010814;28;19930;-75
2022/10/24 14:44:46;;;;;;;;;;;13.80;99.90;;;;;;5011270;28;19984;-71
2022/10/24 14:47:30;;;;;;;;;;;13.80;99.90;;;;;;4976099;28;19930;-76
2022/10/24 14:50:02;;;;;;;;;;;13.80;99.90;;;;;;5020025;28;19929;-75
2022/10/24 14:52:38;;;;;;;;;;;13.80;99.90;;;;;;4993901;28;20193;-75
2022/10/24 14:55:13;;;;;;;;;;;13.80;99.90;;;;;;4992582;28;19930;-72
2022/10/24 14:57:49;;;;;;;;;;;13.70;99.90;;;;;;4992836;28;20528;-76
2022/10/24 15:00:21;;;;;;;;;;;13.70;99.90;;;;;;4994302;28;19995;-75